sensor_id;sensor_type;location;lat;lon;timestamp;temperature;humidity
20985;DHT22;10651;47.552;7.606;2023-02-24T07:38:54;9.40;99.90
20985;DHT22;10651;47.552;7.606;2023-02-24T08:58:13;10.60;99.90
20985;DHT22;10651;47.552;7.606;2023-02-24T09:11:58;10.50;99.90
20985;DHT22;10651;47.552;7.606;2023-02-24T09:58:17;14.80;99.90
20985;DHT22;10651;47.552;7.606;2023-02-24T11:13:37;34.20;62.00
20985;DHT22;10651;47.552;7.606;2023-02-24T11:16:57;34.60;60.00
20985;DHT22;10651;47.552;7.606;2023-02-24T11:36:39;34.70;58.20
20985;DHT22;10651;47.552;7.606;2023-02-24T11:42:52;34.30;58.70
20985;DHT22;10651;47.552;7.606;2023-02-24T11:48:38;33.60;58.20
20985;DHT22;10651;47.552;7.606;2023-02-24T11:55:04;33.40;59.70
20985;DHT22;10651;47.552;7.606;2023-02-24T11:57:42;34.20;58.90
20985;DHT22;10651;47.552;7.606;2023-02-24T12:00:17;35.30;58.30
20985;DHT22;10651;47.552;7.606;2023-02-24T12:05:27;35.80;56.60
20985;DHT22;10651;47.552;7.606;2023-02-24T12:11:01;36.50;56.50
20985;DHT22;10651;47.552;7.606;2023-02-24T12:14:14;36.20;55.90
20985;DHT22;10651;47.552;7.606;2023-02-24T12:17:12;36.40;55.40
20985;DHT22;10651;47.552;7.606;2023-02-24T12:20:20;36.80;54.80
20985;DHT22;10651;47.552;7.606;2023-02-24T12:35:02;37.00;53.90
20985;DHT22;10651;47.552;7.606;2023-02-24T12:59:21;35.80;53.60
20985;DHT22;10651;47.552;7.606;2023-02-24T13:02:13;36.00;53.60
20985;DHT22;10651;47.552;7.606;2023-02-24T13:19:31;35.50;55.00
20985;DHT22;10651;47.552;7.606;2023-02-24T13:22:38;34.30;55.80
20985;DHT22;10651;47.552;7.606;2023-02-24T13:26:06;33.60;56.30
20985;DHT22;10651;47.552;7.606;2023-02-24T13:38:20;32.80;58.00
20985;DHT22;10651;47.552;7.606;2023-02-24T14:15:45;25.30;70.40
20985;DHT22;10651;47.552;7.606;2023-02-24T14:29:38;21.80;84.20
20985;DHT22;10651;47.552;7.606;2023-02-24T14:32:42;24.90;80.60
20985;DHT22;10651;47.552;7.606;2023-02-24T14:35:38;25.10;74.50
20985;DHT22;10651;47.552;7.606;2023-02-24T14:47:15;20.70;85.00
20985;DHT22;10651;47.552;7.606;2023-02-24T14:49:51;20.50;86.20
20985;DHT22;10651;47.552;7.606;2023-02-24T14:55:16;19.60;90.20
20985;DHT22;10651;47.552;7.606;2023-02-24T14:57:57;19.40;90.90
20985;DHT22;10651;47.552;7.606;2023-02-24T15:00:27;19.40;91.40
20985;DHT22;10651;47.552;7.606;2023-02-24T15:03:05;19.30;92.00
20985;DHT22;10651;47.552;7.606;2023-02-24T15:05:42;19.10;92.40
20985;DHT22;10651;47.552;7.606;2023-02-24T15:10:50;18.80;93.80
20985;DHT22;10651;47.552;7.606;2023-02-24T15:13:38;18.90;93.70
20985;DHT22;10651;47.552;7.606;2023-02-24T15:16:27;18.90;93.80
20985;DHT22;10651;47.552;7.606;2023-02-24T15:18:56;18.80;94.20
20985;DHT22;10651;47.552;7.606;2023-02-24T15:24:41;18.60;95.00
20985;DHT22;10651;47.552;7.606;2023-02-24T15:27:18;18.30;95.90
20985;DHT22;10651;47.552;7.606;2023-02-24T15:29:59;18.30;96.40
20985;DHT22;10651;47.552;7.606;2023-02-24T15:32:28;18.20;96.80
20985;DHT22;10651;47.552;7.606;2023-02-24T15:34:54;18.00;97.30
20985;DHT22;10651;47.552;7.606;2023-02-24T15:37:53;17.90;98.00
20985;DHT22;10651;47.552;7.606;2023-02-24T15:40:21;17.80;98.00
20985;DHT22;10651;47.552;7.606;2023-02-24T15:42:56;17.70;98.30
20985;DHT22;10651;47.552;7.606;2023-02-24T15:45:33;17.60;98.60
20985;DHT22;10651;47.552;7.606;2023-02-24T15:48:01;17.70;99.10
20985;DHT22;10651;47.552;7.606;2023-02-24T15:50:29;17.60;99.20
20985;DHT22;10651;47.552;7.606;2023-02-24T15:52:57;17.50;99.50
20985;DHT22;10651;47.552;7.606;2023-02-24T15:55:25;17.50;99.90
20985;DHT22;10651;47.552;7.606;2023-02-24T15:58:02;17.60;99.90
20985;DHT22;10651;47.552;7.606;2023-02-24T16:00:28;17.50;99.90
20985;DHT22;10651;47.552;7.606;2023-02-24T16:02:56;17.40;99.90
20985;DHT22;10651;47.552;7.606;2023-02-24T16:05:22;17.10;99.90
20985;DHT22;10651;47.552;7.606;2023-02-24T16:47:36;16.30;99.90
20985;DHT22;10651;47.552;7.606;2023-02-24T16:50:21;16.00;99.90
20985;DHT22;10651;47.552;7.606;2023-02-24T16:53:21;16.10;99.90
20985;DHT22;10651;47.552;7.606;2023-02-24T16:55:59;16.10;99.90
20985;DHT22;10651;47.552;7.606;2023-02-24T16:58:33;16.20;99.90
20985;DHT22;10651;47.552;7.606;2023-02-24T17:01:03;16.10;99.90
20985;DHT22;10651;47.552;7.606;2023-02-24T17:04:01;16.00;99.90
20985;DHT22;10651;47.552;7.606;2023-02-24T17:06:35;15.90;99.90
20985;DHT22;10651;47.552;7.606;2023-02-24T17:09:10;15.90;99.90
20985;DHT22;10651;47.552;7.606;2023-02-24T17:11:41;15.90;99.90
20985;DHT22;10651;47.552;7.606;2023-02-24T17:14:17;15.80;99.90
20985;DHT22;10651;47.552;7.606;2023-02-24T17:16:50;15.80;99.90
20985;DHT22;10651;47.552;7.606;2023-02-24T17:19:30;15.80;99.90
20985;DHT22;10651;47.552;7.606;2023-02-24T17:22:10;15.80;99.90
20985;DHT22;10651;47.552;7.606;2023-02-24T17:25:10;15.80;99.90
20985;DHT22;10651;47.552;7.606;2023-02-24T17:27:51;15.80;99.90
20985;DHT22;10651;47.552;7.606;2023-02-24T17:30:33;15.70;99.90
20985;DHT22;10651;47.552;7.606;2023-02-24T17:33:22;15.60;99.90
20985;DHT22;10651;47.552;7.606;2023-02-24T17:39:35;15.50;99.90
20985;DHT22;10651;47.552;7.606;2023-02-24T17:42:10;15.50;99.90
20985;DHT22;10651;47.552;7.606;2023-02-24T17:48:10;15.30;99.90
20985;DHT22;10651;47.552;7.606;2023-02-24T17:50:52;15.40;99.90
20985;DHT22;10651;47.552;7.606;2023-02-24T17:53:30;15.40;99.90
20985;DHT22;10651;47.552;7.606;2023-02-24T18:06:07;15.20;99.90
20985;DHT22;10651;47.552;7.606;2023-02-24T18:08:41;15.20;99.90
20985;DHT22;10651;47.552;7.606;2023-02-24T18:11:26;15.10;99.90
20985;DHT22;10651;47.552;7.606;2023-02-24T18:14:18;15.10;99.90
20985;DHT22;10651;47.552;7.606;2023-02-24T18:16:53;15.10;99.90
20985;DHT22;10651;47.552;7.606;2023-02-24T18:33:34;15.00;99.90
20985;DHT22;10651;47.552;7.606;2023-02-24T18:36:10;15.00;99.90
20985;DHT22;10651;47.552;7.606;2023-02-24T18:39:08;15.00;99.90
20985;DHT22;10651;47.552;7.606;2023-02-24T18:42:29;15.00;99.90
20985;DHT22;10651;47.552;7.606;2023-02-24T18:51:38;14.80;99.90
20985;DHT22;10651;47.552;7.606;2023-02-24T18:57:28;14.80;99.90
20985;DHT22;10651;47.552;7.606;2023-02-24T18:59:57;14.80;99.90
20985;DHT22;10651;47.552;7.606;2023-02-24T19:02:28;14.80;99.90
20985;DHT22;10651;47.552;7.606;2023-02-24T19:05:00;14.70;99.90
20985;DHT22;10651;47.552;7.606;2023-02-24T19:07:29;14.60;99.90
20985;DHT22;10651;47.552;7.606;2023-02-24T19:09:55;14.60;99.90
20985;DHT22;10651;47.552;7.606;2023-02-24T19:12:29;14.50;99.90
20985;DHT22;10651;47.552;7.606;2023-02-24T19:15:01;14.50;99.90
20985;DHT22;10651;47.552;7.606;2023-02-24T19:17:30;14.60;99.90
20985;DHT22;10651;47.552;7.606;2023-02-24T19:22:54;14.50;99.90
20985;DHT22;10651;47.552;7.606;2023-02-24T19:25:30;14.50;99.90
20985;DHT22;10651;47.552;7.606;2023-02-24T19:27:58;14.40;99.90
20985;DHT22;10651;47.552;7.606;2023-02-24T19:30:24;14.30;99.90
20985;DHT22;10651;47.552;7.606;2023-02-24T19:32:50;14.30;99.90
20985;DHT22;10651;47.552;7.606;2023-02-24T19:35:25;14.20;99.90
20985;DHT22;10651;47.552;7.606;2023-02-24T19:37:50;14.30;99.90
20985;DHT22;10651;47.552;7.606;2023-02-24T19:40:16;14.20;99.90
20985;DHT22;10651;47.552;7.606;2023-02-24T19:42:43;14.20;99.90
20985;DHT22;10651;47.552;7.606;2023-02-24T19:45:11;14.20;99.90
20985;DHT22;10651;47.552;7.606;2023-02-24T19:47:38;14.10;99.90
20985;DHT22;10651;47.552;7.606;2023-02-24T19:50:10;14.10;99.90
20985;DHT22;10651;47.552;7.606;2023-02-24T19:52:35;14.10;99.90
20985;DHT22;10651;47.552;7.606;2023-02-24T19:55:01;14.10;99.90
20985;DHT22;10651;47.552;7.606;2023-02-24T19:57:27;14.00;99.90
20985;DHT22;10651;47.552;7.606;2023-02-24T19:59:53;14.00;99.90
20985;DHT22;10651;47.552;7.606;2023-02-24T20:02:19;13.90;99.90
20985;DHT22;10651;47.552;7.606;2023-02-24T20:04:44;13.80;99.90
20985;DHT22;10651;47.552;7.606;2023-02-24T20:07:10;13.70;99.90
20985;DHT22;10651;47.552;7.606;2023-02-24T20:09:42;13.60;99.90
20985;DHT22;10651;47.552;7.606;2023-02-24T20:12:17;13.50;99.90
20985;DHT22;10651;47.552;7.606;2023-02-24T20:14:43;13.40;99.90
20985;DHT22;10651;47.552;7.606;2023-02-24T20:17:14;13.30;99.90
20985;DHT22;10651;47.552;7.606;2023-02-24T20:19:42;13.30;99.90
20985;DHT22;10651;47.552;7.606;2023-02-24T20:22:08;13.30;99.90
20985;DHT22;10651;47.552;7.606;2023-02-24T20:24:35;13.20;99.90
20985;DHT22;10651;47.552;7.606;2023-02-24T20:27:04;13.20;99.90
20985;DHT22;10651;47.552;7.606;2023-02-24T20:29:31;13.10;99.90
20985;DHT22;10651;47.552;7.606;2023-02-24T20:32:01;13.20;99.90
20985;DHT22;10651;47.552;7.606;2023-02-24T20:34:27;13.10;99.90
20985;DHT22;10651;47.552;7.606;2023-02-24T20:37:07;13.10;99.90
20985;DHT22;10651;47.552;7.606;2023-02-24T20:39:38;13.00;99.90
20985;DHT22;10651;47.552;7.606;2023-02-24T20:44:37;13.10;99.90
20985;DHT22;10651;47.552;7.606;2023-02-24T20:49:41;13.00;99.90
20985;DHT22;10651;47.552;7.606;2023-02-24T20:52:12;13.00;99.90
20985;DHT22;10651;47.552;7.606;2023-02-24T20:54:38;13.10;99.90
20985;DHT22;10651;47.552;7.606;2023-02-24T21:02:33;13.10;99.90
20985;DHT22;10651;47.552;7.606;2023-02-24T21:05:16;13.00;99.90
20985;DHT22;10651;47.552;7.606;2023-02-24T21:07:53;13.00;99.90
20985;DHT22;10651;47.552;7.606;2023-02-24T21:12:59;12.90;99.90
20985;DHT22;10651;47.552;7.606;2023-02-24T21:15:34;12.80;99.90
20985;DHT22;10651;47.552;7.606;2023-02-24T21:22:13;12.50;99.90
20985;DHT22;10651;47.552;7.606;2023-02-24T21:30:34;12.40;99.90
20985;DHT22;10651;47.552;7.606;2023-02-24T21:33:11;12.40;99.90
20985;DHT22;10651;47.552;7.606;2023-02-24T21:35:56;12.40;99.90
20985;DHT22;10651;47.552;7.606;2023-02-24T21:38:27;12.50;99.90
20985;DHT22;10651;47.552;7.606;2023-02-24T21:41:13;12.60;99.90
20985;DHT22;10651;47.552;7.606;2023-02-24T21:44:00;12.50;99.90
20985;DHT22;10651;47.552;7.606;2023-02-24T21:49:09;12.40;99.90
20985;DHT22;10651;47.552;7.606;2023-02-24T21:51:41;12.40;99.90
20985;DHT22;10651;47.552;7.606;2023-02-24T21:54:16;12.50;99.90
20985;DHT22;10651;47.552;7.606;2023-02-24T21:56:51;12.40;99.90
20985;DHT22;10651;47.552;7.606;2023-02-24T22:01:52;12.30;99.90
20985;DHT22;10651;47.552;7.606;2023-02-24T22:04:21;12.30;99.90
20985;DHT22;10651;47.552;7.606;2023-02-24T22:07:13;12.30;99.90
20985;DHT22;10651;47.552;7.606;2023-02-24T22:09:45;12.20;99.90
20985;DHT22;10651;47.552;7.606;2023-02-24T22:12:28;12.10;99.90
20985;DHT22;10651;47.552;7.606;2023-02-24T22:15:43;12.10;99.90
20985;DHT22;10651;47.552;7.606;2023-02-24T22:26:22;11.90;99.90
20985;DHT22;10651;47.552;7.606;2023-02-24T22:29:01;12.00;99.90
